sensor_id;sensor_type;location;lat;lon;timestamp;temperature;humidity
44215;DHT22;29884;47.450;19.124;2022-07-05T00:01:45;26.60;84.10
44215;DHT22;29884;47.450;19.124;2022-07-05T00:04:11;26.50;86.30
44215;DHT22;29884;47.450;19.124;2022-07-05T00:06:37;26.40;88.20
44215;DHT22;29884;47.450;19.124;2022-07-05T00:09:23;26.30;90.10
44215;DHT22;29884;47.450;19.124;2022-07-05T00:11:49;26.20;91.00
44215;DHT22;29884;47.450;19.124;2022-07-05T00:14:15;26.10;91.80
44215;DHT22;29884;47.450;19.124;2022-07-05T00:16:40;26.10;92.60
44215;DHT22;29884;47.450;19.124;2022-07-05T00:19:06;26.00;93.50
44215;DHT22;29884;47.450;19.124;2022-07-05T00:21:32;25.90;94.70
44215;DHT22;29884;47.450;19.124;2022-07-05T00:23:57;25.90;95.40
44215;DHT22;29884;47.450;19.124;2022-07-05T00:26:23;25.80;95.70
44215;DHT22;29884;47.450;19.124;2022-07-05T00:28:49;25.80;96.20
44215;DHT22;29884;47.450;19.124;2022-07-05T00:31:15;25.70;96.60
44215;DHT22;29884;47.450;19.124;2022-07-05T00:33:41;25.60;97.10
44215;DHT22;29884;47.450;19.124;2022-07-05T00:36:06;25.60;97.20
44215;DHT22;29884;47.450;19.124;2022-07-05T00:38:32;25.60;97.60
44215;DHT22;29884;47.450;19.124;2022-07-05T00:40:58;25.60;98.00
44215;DHT22;29884;47.450;19.124;2022-07-05T00:43:24;25.50;98.20
44215;DHT22;29884;47.450;19.124;2022-07-05T00:45:49;25.50;98.30
44215;DHT22;29884;47.450;19.124;2022-07-05T00:48:15;25.40;98.70
44215;DHT22;29884;47.450;19.124;2022-07-05T00:50:41;25.30;99.00
44215;DHT22;29884;47.450;19.124;2022-07-05T00:53:07;25.30;99.40
44215;DHT22;29884;47.450;19.124;2022-07-05T00:55:33;25.30;99.80
44215;DHT22;29884;47.450;19.124;2022-07-05T00:57:59;25.20;99.90
44215;DHT22;29884;47.450;19.124;2022-07-05T01:00:25;25.20;99.90
44215;DHT22;29884;47.450;19.124;2022-07-05T01:02:51;25.10;99.90
44215;DHT22;29884;47.450;19.124;2022-07-05T01:05:17;25.10;99.90
44215;DHT22;29884;47.450;19.124;2022-07-05T01:07:43;25.10;99.90
44215;DHT22;29884;47.450;19.124;2022-07-05T01:10:09;25.00;99.90
44215;DHT22;29884;47.450;19.124;2022-07-05T01:12:38;25.00;99.90
44215;DHT22;29884;47.450;19.124;2022-07-05T01:15:04;25.00;99.90
44215;DHT22;29884;47.450;19.124;2022-07-05T01:17:29;25.00;99.90
44215;DHT22;29884;47.450;19.124;2022-07-05T01:19:55;25.00;99.90
44215;DHT22;29884;47.450;19.124;2022-07-05T01:22:25;25.00;99.90
44215;DHT22;29884;47.450;19.124;2022-07-05T01:24:52;25.00;99.90
44215;DHT22;29884;47.450;19.124;2022-07-05T01:27:22;25.00;99.90
44215;DHT22;29884;47.450;19.124;2022-07-05T01:29:48;25.00;99.90
44215;DHT22;29884;47.450;19.124;2022-07-05T01:32:13;24.90;99.90
44215;DHT22;29884;47.450;19.124;2022-07-05T01:34:40;25.00;99.90
44215;DHT22;29884;47.450;19.124;2022-07-05T01:37:06;25.00;99.90
44215;DHT22;29884;47.450;19.124;2022-07-05T01:39:33;25.00;99.90
44215;DHT22;29884;47.450;19.124;2022-07-05T01:41:59;25.00;99.90
44215;DHT22;29884;47.450;19.124;2022-07-05T01:44:25;25.00;99.90
44215;DHT22;29884;47.450;19.124;2022-07-05T01:46:54;24.90;99.90
44215;DHT22;29884;47.450;19.124;2022-07-05T01:49:22;24.90;99.90
44215;DHT22;29884;47.450;19.124;2022-07-05T01:51:56;24.90;99.90
44215;DHT22;29884;47.450;19.124;2022-07-05T01:54:23;24.90;99.90
44215;DHT22;29884;47.450;19.124;2022-07-05T01:56:49;24.80;99.90
44215;DHT22;29884;47.450;19.124;2022-07-05T01:59:15;24.80;99.90
44215;DHT22;29884;47.450;19.124;2022-07-05T02:01:41;24.80;99.90
44215;DHT22;29884;47.450;19.124;2022-07-05T02:04:08;24.90;99.90
44215;DHT22;29884;47.450;19.124;2022-07-05T02:06:35;24.90;99.90
44215;DHT22;29884;47.450;19.124;2022-07-05T02:09:02;24.80;99.90
44215;DHT22;29884;47.450;19.124;2022-07-05T02:11:28;24.90;99.90
44215;DHT22;29884;47.450;19.124;2022-07-05T02:13:54;24.90;99.90
44215;DHT22;29884;47.450;19.124;2022-07-05T02:16:28;24.90;99.90
44215;DHT22;29884;47.450;19.124;2022-07-05T02:18:54;24.90;99.90
44215;DHT22;29884;47.450;19.124;2022-07-05T02:21:20;24.90;99.90
44215;DHT22;29884;47.450;19.124;2022-07-05T02:23:46;24.80;99.90
44215;DHT22;29884;47.450;19.124;2022-07-05T02:26:12;24.80;99.90
44215;DHT22;29884;47.450;19.124;2022-07-05T02:28:38;24.80;99.90
44215;DHT22;29884;47.450;19.124;2022-07-05T02:31:04;24.80;99.90
44215;DHT22;29884;47.450;19.124;2022-07-05T02:33:29;24.80;99.90
44215;DHT22;29884;47.450;19.124;2022-07-05T02:35:55;24.80;99.90
44215;DHT22;29884;47.450;19.124;2022-07-05T02:38:21;24.80;99.90
44215;DHT22;29884;47.450;19.124;2022-07-05T02:40:46;24.80;99.90
44215;DHT22;29884;47.450;19.124;2022-07-05T02:43:12;24.80;99.90
44215;DHT22;29884;47.450;19.124;2022-07-05T02:45:38;24.80;99.90
44215;DHT22;29884;47.450;19.124;2022-07-05T02:48:04;24.80;99.90
44215;DHT22;29884;47.450;19.124;2022-07-05T02:50:30;24.80;99.90
44215;DHT22;29884;47.450;19.124;2022-07-05T02:52:55;24.80;99.90
44215;DHT22;29884;47.450;19.124;2022-07-05T02:55:21;24.80;99.90
44215;DHT22;29884;47.450;19.124;2022-07-05T02:57:47;24.80;99.90
44215;DHT22;29884;47.450;19.124;2022-07-05T03:00:14;24.70;99.90
44215;DHT22;29884;47.450;19.124;2022-07-05T03:02:40;24.80;99.90
44215;DHT22;29884;47.450;19.124;2022-07-05T03:05:06;24.70;99.90
44215;DHT22;29884;47.450;19.124;2022-07-05T03:07:31;24.70;99.90
44215;DHT22;29884;47.450;19.124;2022-07-05T03:09:57;24.70;99.90
44215;DHT22;29884;47.450;19.124;2022-07-05T03:12:23;24.70;99.90
44215;DHT22;29884;47.450;19.124;2022-07-05T03:14:48;24.70;99.90
44215;DHT22;29884;47.450;19.124;2022-07-05T03:17:14;24.70;99.90
44215;DHT22;29884;47.450;19.124;2022-07-05T03:19:40;24.70;99.90
44215;DHT22;29884;47.450;19.124;2022-07-05T03:22:05;24.60;99.90
44215;DHT22;29884;47.450;19.124;2022-07-05T03:24:31;24.70;99.90
44215;DHT22;29884;47.450;19.124;2022-07-05T03:26:56;24.70;99.90
44215;DHT22;29884;47.450;19.124;2022-07-05T03:29:22;24.70;99.90
44215;DHT22;29884;47.450;19.124;2022-07-05T03:31:48;24.70;99.90
44215;DHT22;29884;47.450;19.124;2022-07-05T03:34:14;24.70;99.90
44215;DHT22;29884;47.450;19.124;2022-07-05T03:36:39;24.70;99.90
44215;DHT22;29884;47.450;19.124;2022-07-05T03:39:05;24.70;99.90
44215;DHT22;29884;47.450;19.124;2022-07-05T03:41:31;24.70;99.90
44215;DHT22;29884;47.450;19.124;2022-07-05T03:43:56;24.70;99.90
44215;DHT22;29884;47.450;19.124;2022-07-05T03:46:22;24.80;99.90
44215;DHT22;29884;47.450;19.124;2022-07-05T03:48:48;24.80;99.90
44215;DHT22;29884;47.450;19.124;2022-07-05T03:51:13;24.80;99.90
44215;DHT22;29884;47.450;19.124;2022-07-05T03:53:39;24.80;99.90
44215;DHT22;29884;47.450;19.124;2022-07-05T03:56:05;24.80;99.90
44215;DHT22;29884;47.450;19.124;2022-07-05T03:58:31;24.80;99.90
44215;DHT22;29884;47.450;19.124;2022-07-05T04:00:56;24.80;99.90
44215;DHT22;29884;47.450;19.124;2022-07-05T04:03:22;24.80;99.90
44215;DHT22;29884;47.450;19.124;2022-07-05T04:05:48;24.90;99.90
44215;DHT22;29884;47.450;19.124;2022-07-05T04:08:13;24.90;99.90
44215;DHT22;29884;47.450;19.124;2022-07-05T04:10:39;25.00;99.90
44215;DHT22;29884;47.450;19.124;2022-07-05T04:13:05;25.00;99.90
44215;DHT22;29884;47.450;19.124;2022-07-05T04:15:30;25.00;99.90
44215;DHT22;29884;47.450;19.124;2022-07-05T04:17:57;25.00;99.90
44215;DHT22;29884;47.450;19.124;2022-07-05T04:20:23;25.10;99.90
44215;DHT22;29884;47.450;19.124;2022-07-05T04:22:50;25.10;99.90
44215;DHT22;29884;47.450;19.124;2022-07-05T04:25:16;25.10;99.90
44215;DHT22;29884;47.450;19.124;2022-07-05T04:27:46;25.10;99.90
44215;DHT22;29884;47.450;19.124;2022-07-05T04:30:13;25.10;99.90
44215;DHT22;29884;47.450;19.124;2022-07-05T04:32:39;25.10;99.90
44215;DHT22;29884;47.450;19.124;2022-07-05T04:35:05;25.20;99.90
44215;DHT22;29884;47.450;19.124;2022-07-05T04:37:30;25.30;99.90
44215;DHT22;29884;47.450;19.124;2022-07-05T04:39:56;25.30;99.50
44215;DHT22;29884;47.450;19.124;2022-07-05T04:42:22;25.40;99.70
44215;DHT22;29884;47.450;19.124;2022-07-05T04:44:47;25.40;99.40
44215;DHT22;29884;47.450;19.124;2022-07-05T04:47:13;25.50;99.20
44215;DHT22;29884;47.450;19.124;2022-07-05T04:49:39;25.60;98.40
44215;DHT22;29884;47.450;19.124;2022-07-05T04:52:05;25.60;98.60
44215;DHT22;29884;47.450;19.124;2022-07-05T04:54:30;25.60;99.00
44215;DHT22;29884;47.450;19.124;2022-07-05T04:56:56;25.60;98.40
44215;DHT22;29884;47.450;19.124;2022-07-05T04:59:22;25.60;98.50
44215;DHT22;29884;47.450;19.124;2022-07-05T05:01:48;25.50;99.20
44215;DHT22;29884;47.450;19.124;2022-07-05T05:04:14;25.40;98.70
44215;DHT22;29884;47.450;19.124;2022-07-05T05:06:40;25.50;98.90
44215;DHT22;29884;47.450;19.124;2022-07-05T05:09:08;25.50;98.90
44215;DHT22;29884;47.450;19.124;2022-07-05T05:11:37;25.40;99.00
44215;DHT22;29884;47.450;19.124;2022-07-05T05:14:02;25.30;98.90
44215;DHT22;29884;47.450;19.124;2022-07-05T05:16:28;25.30;98.90
44215;DHT22;29884;47.450;19.124;2022-07-05T05:18:54;25.40;98.90
44215;DHT22;29884;47.450;19.124;2022-07-05T05:21:19;25.40;99.00
44215;DHT22;29884;47.450;19.124;2022-07-05T05:23:45;25.30;99.00
44215;DHT22;29884;47.450;19.124;2022-07-05T05:26:11;25.30;98.70
44215;DHT22;29884;47.450;19.124;2022-07-05T05:28:36;25.40;98.60
44215;DHT22;29884;47.450;19.124;2022-07-05T05:31:03;25.40;99.00
44215;DHT22;29884;47.450;19.124;2022-07-05T05:33:28;25.40;98.90
44215;DHT22;29884;47.450;19.124;2022-07-05T05:35:54;25.40;99.10
44215;DHT22;29884;47.450;19.124;2022-07-05T05:38:20;25.30;98.90
44215;DHT22;29884;47.450;19.124;2022-07-05T05:40:46;25.40;99.20
44215;DHT22;29884;47.450;19.124;2022-07-05T05:43:12;25.40;99.10
44215;DHT22;29884;47.450;19.124;2022-07-05T05:45:38;25.40;99.40
44215;DHT22;29884;47.450;19.124;2022-07-05T05:48:04;25.40;99.50
44215;DHT22;29884;47.450;19.124;2022-07-05T05:50:32;25.40;99.70
44215;DHT22;29884;47.450;19.124;2022-07-05T05:52:58;25.40;99.70
44215;DHT22;29884;47.450;19.124;2022-07-05T05:55:25;25.50;99.60
44215;DHT22;29884;47.450;19.124;2022-07-05T05:57:52;25.50;99.90
44215;DHT22;29884;47.450;19.124;2022-07-05T06:00:19;25.50;99.90
44215;DHT22;29884;47.450;19.124;2022-07-05T06:02:46;25.60;99.90
44215;DHT22;29884;47.450;19.124;2022-07-05T06:05:12;25.70;99.50
44215;DHT22;29884;47.450;19.124;2022-07-05T06:07:50;25.70;99.70
44215;DHT22;29884;47.450;19.124;2022-07-05T06:10:38;25.70;99.40
44215;DHT22;29884;47.450;19.124;2022-07-05T06:13:08;25.80;99.10
44215;DHT22;29884;47.450;19.124;2022-07-05T06:15:35;25.80;99.00
44215;DHT22;29884;47.450;19.124;2022-07-05T06:18:01;25.90;98.80
44215;DHT22;29884;47.450;19.124;2022-07-05T06:20:32;25.90;98.30
44215;DHT22;29884;47.450;19.124;2022-07-05T06:22:59;26.00;98.60
44215;DHT22;29884;47.450;19.124;2022-07-05T06:25:25;26.10;98.10
44215;DHT22;29884;47.450;19.124;2022-07-05T06:27:57;26.10;96.10
44215;DHT22;29884;47.450;19.124;2022-07-05T06:30:24;26.20;95.50
44215;DHT22;29884;47.450;19.124;2022-07-05T06:32:50;26.20;95.10
44215;DHT22;29884;47.450;19.124;2022-07-05T06:35:17;26.30;94.80
44215;DHT22;29884;47.450;19.124;2022-07-05T06:40:17;26.30;94.50
44215;DHT22;29884;47.450;19.124;2022-07-05T06:42:44;26.40;95.00
44215;DHT22;29884;47.450;19.124;2022-07-05T06:45:10;26.40;95.00
44215;DHT22;29884;47.450;19.124;2022-07-05T06:47:36;26.30;94.80
44215;DHT22;29884;47.450;19.124;2022-07-05T06:50:03;26.00;94.90
44215;DHT22;29884;47.450;19.124;2022-07-05T06:52:30;26.00;95.50
44215;DHT22;29884;47.450;19.124;2022-07-05T06:54:57;26.00;95.10
44215;DHT22;29884;47.450;19.124;2022-07-05T06:57:23;26.00;95.30
44215;DHT22;29884;47.450;19.124;2022-07-05T06:59:50;26.00;95.40
44215;DHT22;29884;47.450;19.124;2022-07-05T07:02:16;26.20;94.40
44215;DHT22;29884;47.450;19.124;2022-07-05T07:04:42;26.40;94.10
44215;DHT22;29884;47.450;19.124;2022-07-05T07:07:08;26.50;93.60
44215;DHT22;29884;47.450;19.124;2022-07-05T07:09:56;26.30;93.60
44215;DHT22;29884;47.450;19.124;2022-07-05T07:12:22;26.20;93.70
44215;DHT22;29884;47.450;19.124;2022-07-05T07:14:48;26.30;93.60
44215;DHT22;29884;47.450;19.124;2022-07-05T07:17:14;26.40;93.60
44215;DHT22;29884;47.450;19.124;2022-07-05T07:19:39;26.40;93.80
44215;DHT22;29884;47.450;19.124;2022-07-05T07:22:05;26.30;93.50
44215;DHT22;29884;47.450;19.124;2022-07-05T07:24:31;26.40;93.80
44215;DHT22;29884;47.450;19.124;2022-07-05T07:26:56;26.60;93.50
44215;DHT22;29884;47.450;19.124;2022-07-05T07:29:29;26.60;93.20
44215;DHT22;29884;47.450;19.124;2022-07-05T07:31:56;26.80;93.10
44215;DHT22;29884;47.450;19.124;2022-07-05T07:34:22;26.80;92.80
44215;DHT22;29884;47.450;19.124;2022-07-05T07:36:48;26.60;92.70
44215;DHT22;29884;47.450;19.124;2022-07-05T07:39:14;26.60;93.00
44215;DHT22;29884;47.450;19.124;2022-07-05T07:41:40;26.80;93.00
44215;DHT22;29884;47.450;19.124;2022-07-05T07:44:06;26.80;92.70
44215;DHT22;29884;47.450;19.124;2022-07-05T07:46:32;26.80;93.10
44215;DHT22;29884;47.450;19.124;2022-07-05T07:48:58;26.80;92.80
44215;DHT22;29884;47.450;19.124;2022-07-05T07:51:24;26.70;93.00
44215;DHT22;29884;47.450;19.124;2022-07-05T07:53:50;26.60;92.90
44215;DHT22;29884;47.450;19.124;2022-07-05T07:56:16;26.50;93.20
44215;DHT22;29884;47.450;19.124;2022-07-05T07:58:43;26.80;93.70
44215;DHT22;29884;47.450;19.124;2022-07-05T08:01:09;26.90;92.80
44215;DHT22;29884;47.450;19.124;2022-07-05T08:03:40;26.90;93.90
44215;DHT22;29884;47.450;19.124;2022-07-05T08:06:07;26.80;92.90
44215;DHT22;29884;47.450;19.124;2022-07-05T08:08:34;26.60;93.40
44215;DHT22;29884;47.450;19.124;2022-07-05T08:11:00;26.60;93.40
44215;DHT22;29884;47.450;19.124;2022-07-05T08:13:26;26.60;93.50
44215;DHT22;29884;47.450;19.124;2022-07-05T08:15:52;26.50;93.80
44215;DHT22;29884;47.450;19.124;2022-07-05T08:18:17;26.40;93.90
44215;DHT22;29884;47.450;19.124;2022-07-05T08:21:02;26.50;94.20
44215;DHT22;29884;47.450;19.124;2022-07-05T08:23:46;26.50;94.10
44215;DHT22;29884;47.450;19.124;2022-07-05T08:26:11;26.40;94.40
44215;DHT22;29884;47.450;19.124;2022-07-05T08:28:37;26.40;94.10
44215;DHT22;29884;47.450;19.124;2022-07-05T08:31:03;26.50;94.50
44215;DHT22;29884;47.450;19.124;2022-07-05T08:33:28;26.70;94.40
44215;DHT22;29884;47.450;19.124;2022-07-05T08:35:54;26.90;93.90
44215;DHT22;29884;47.450;19.124;2022-07-05T08:38:20;27.00;93.80
44215;DHT22;29884;47.450;19.124;2022-07-05T08:40:49;27.30;93.40
44215;DHT22;29884;47.450;19.124;2022-07-05T08:43:15;27.30;93.50
44215;DHT22;29884;47.450;19.124;2022-07-05T08:45:44;27.30;93.10
44215;DHT22;29884;47.450;19.124;2022-07-05T08:48:11;27.40;93.10
44215;DHT22;29884;47.450;19.124;2022-07-05T08:50:40;27.40;93.30
44215;DHT22;29884;47.450;19.124;2022-07-05T08:53:06;27.50;92.60
44215;DHT22;29884;47.450;19.124;2022-07-05T08:55:33;27.80;92.40
44215;DHT22;29884;47.450;19.124;2022-07-05T08:57:59;27.90;91.30
44215;DHT22;29884;47.450;19.124;2022-07-05T09:00:25;27.80;91.80
44215;DHT22;29884;47.450;19.124;2022-07-05T09:02:51;28.10;91.90
44215;DHT22;29884;47.450;19.124;2022-07-05T09:05:19;28.40;91.80
44215;DHT22;29884;47.450;19.124;2022-07-05T09:07:58;28.30;91.90
44215;DHT22;29884;47.450;19.124;2022-07-05T09:10:29;28.10;91.30
44215;DHT22;29884;47.450;19.124;2022-07-05T09:12:56;27.80;92.20
44215;DHT22;29884;47.450;19.124;2022-07-05T09:15:22;27.90;91.60
44215;DHT22;29884;47.450;19.124;2022-07-05T09:17:48;28.10;91.40
44215;DHT22;29884;47.450;19.124;2022-07-05T09:20:19;28.30;91.10
44215;DHT22;29884;47.450;19.124;2022-07-05T09:22:52;28.40;90.70
44215;DHT22;29884;47.450;19.124;2022-07-05T09:25:23;28.00;91.10
44215;DHT22;29884;47.450;19.124;2022-07-05T09:27:51;27.90;91.00
44215;DHT22;29884;47.450;19.124;2022-07-05T09:30:25;27.80;91.40
44215;DHT22;29884;47.450;19.124;2022-07-05T09:33:15;27.80;92.00
44215;DHT22;29884;47.450;19.124;2022-07-05T09:35:43;28.00;91.90
44215;DHT22;29884;47.450;19.124;2022-07-05T09:38:19;27.80;91.50
44215;DHT22;29884;47.450;19.124;2022-07-05T09:40:46;27.70;92.00
44215;DHT22;29884;47.450;19.124;2022-07-05T09:43:18;27.60;92.20
44215;DHT22;29884;47.450;19.124;2022-07-05T09:45:52;27.30;93.10
44215;DHT22;29884;47.450;19.124;2022-07-05T09:48:18;27.30;93.50
44215;DHT22;29884;47.450;19.124;2022-07-05T09:50:44;27.10;93.40
44215;DHT22;29884;47.450;19.124;2022-07-05T09:53:10;27.00;93.50
44215;DHT22;29884;47.450;19.124;2022-07-05T09:55:39;26.80;93.20
44215;DHT22;29884;47.450;19.124;2022-07-05T09:58:06;27.00;93.40
44215;DHT22;29884;47.450;19.124;2022-07-05T10:00:32;26.80;93.90
44215;DHT22;29884;47.450;19.124;2022-07-05T10:02:58;26.50;95.10
44215;DHT22;29884;47.450;19.124;2022-07-05T10:05:31;26.30;96.10
44215;DHT22;29884;47.450;19.124;2022-07-05T10:07:59;26.00;96.50
44215;DHT22;29884;47.450;19.124;2022-07-05T10:10:27;25.60;97.30
44215;DHT22;29884;47.450;19.124;2022-07-05T10:12:57;25.30;98.00
44215;DHT22;29884;47.450;19.124;2022-07-05T10:15:28;25.10;99.10
44215;DHT22;29884;47.450;19.124;2022-07-05T10:18:07;25.00;99.90
44215;DHT22;29884;47.450;19.124;2022-07-05T10:20:46;24.90;99.90
44215;DHT22;29884;47.450;19.124;2022-07-05T10:23:17;24.70;99.90
44215;DHT22;29884;47.450;19.124;2022-07-05T10:25:45;24.60;99.90
44215;DHT22;29884;47.450;19.124;2022-07-05T10:28:15;24.50;99.90
44215;DHT22;29884;47.450;19.124;2022-07-05T10:30:43;24.50;99.90
44215;DHT22;29884;47.450;19.124;2022-07-05T10:33:11;24.20;99.90
44215;DHT22;29884;47.450;19.124;2022-07-05T10:35:43;23.80;99.90
44215;DHT22;29884;47.450;19.124;2022-07-05T10:38:11;22.90;99.90
44215;DHT22;29884;47.450;19.124;2022-07-05T10:40:39;22.40;99.90
44215;DHT22;29884;47.450;19.124;2022-07-05T10:43:06;22.10;99.90
44215;DHT22;29884;47.450;19.124;2022-07-05T10:45:39;22.00;99.90
44215;DHT22;29884;47.450;19.124;2022-07-05T10:48:17;21.70;99.90
44215;DHT22;29884;47.450;19.124;2022-07-05T10:53:22;21.60;99.90
44215;DHT22;29884;47.450;19.124;2022-07-05T10:58:33;21.80;99.90
44215;DHT22;29884;47.450;19.124;2022-07-05T11:06:30;21.60;99.90
44215;DHT22;29884;47.450;19.124;2022-07-05T11:13:54;21.30;99.90
44215;DHT22;29884;47.450;19.124;2022-07-05T11:16:31;21.20;99.90
44215;DHT22;29884;47.450;19.124;2022-07-05T11:21:33;21.10;99.90
44215;DHT22;29884;47.450;19.124;2022-07-05T11:24:25;21.10;99.90
44215;DHT22;29884;47.450;19.124;2022-07-05T11:26:52;21.10;99.90
44215;DHT22;29884;47.450;19.124;2022-07-05T11:29:43;21.10;99.90
44215;DHT22;29884;47.450;19.124;2022-07-05T11:32:12;21.00;99.90
44215;DHT22;29884;47.450;19.124;2022-07-05T11:34:42;20.90;99.90
44215;DHT22;29884;47.450;19.124;2022-07-05T11:37:21;20.80;99.90
44215;DHT22;29884;47.450;19.124;2022-07-05T11:42:36;20.80;99.90
44215;DHT22;29884;47.450;19.124;2022-07-05T11:45:05;20.70;99.90
44215;DHT22;29884;47.450;19.124;2022-07-05T11:47:31;20.60;99.90
44215;DHT22;29884;47.450;19.124;2022-07-05T11:49:58;20.60;99.90
44215;DHT22;29884;47.450;19.124;2022-07-05T11:52:32;20.60;99.90
44215;DHT22;29884;47.450;19.124;2022-07-05T11:55:00;20.60;99.90
44215;DHT22;29884;47.450;19.124;2022-07-05T11:57:25;20.70;99.90
44215;DHT22;29884;47.450;19.124;2022-07-05T11:59:51;20.70;99.90
44215;DHT22;29884;47.450;19.124;2022-07-05T12:02:18;20.60;99.90
44215;DHT22;29884;47.450;19.124;2022-07-05T12:04:51;20.60;99.90
44215;DHT22;29884;47.450;19.124;2022-07-05T12:07:30;20.80;99.90
44215;DHT22;29884;47.450;19.124;2022-07-05T12:09:57;20.90;99.90
44215;DHT22;29884;47.450;19.124;2022-07-05T12:12:41;20.90;99.90
44215;DHT22;29884;47.450;19.124;2022-07-05T12:15:17;20.90;99.90
44215;DHT22;29884;47.450;19.124;2022-07-05T12:17:44;20.90;99.90
44215;DHT22;29884;47.450;19.124;2022-07-05T12:20:12;21.10;99.90
44215;DHT22;29884;47.450;19.124;2022-07-05T12:22:43;21.10;99.90
44215;DHT22;29884;47.450;19.124;2022-07-05T12:25:20;21.20;99.90
44215;DHT22;29884;47.450;19.124;2022-07-05T12:27:48;21.20;99.90
44215;DHT22;29884;47.450;19.124;2022-07-05T12:30:15;21.40;99.90
44215;DHT22;29884;47.450;19.124;2022-07-05T12:33:01;21.60;99.90
44215;DHT22;29884;47.450;19.124;2022-07-05T12:35:36;21.60;99.90
44215;DHT22;29884;47.450;19.124;2022-07-05T12:40:33;21.60;99.90
44215;DHT22;29884;47.450;19.124;2022-07-05T12:43:04;21.60;99.90
44215;DHT22;29884;47.450;19.124;2022-07-05T12:45:31;21.50;99.90
44215;DHT22;29884;47.450;19.124;2022-07-05T12:47:59;21.50;99.90
44215;DHT22;29884;47.450;19.124;2022-07-05T12:50:27;21.60;99.90
44215;DHT22;29884;47.450;19.124;2022-07-05T12:53:01;21.60;99.90
44215;DHT22;29884;47.450;19.124;2022-07-05T12:55:57;21.60;99.90
44215;DHT22;29884;47.450;19.124;2022-07-05T12:58:45;21.60;99.90
44215;DHT22;29884;47.450;19.124;2022-07-05T13:01:25;21.50;99.90
44215;DHT22;29884;47.450;19.124;2022-07-05T13:04:17;21.40;99.90
44215;DHT22;29884;47.450;19.124;2022-07-05T13:06:52;21.30;99.90
44215;DHT22;29884;47.450;19.124;2022-07-05T13:14:42;21.30;99.90
44215;DHT22;29884;47.450;19.124;2022-07-05T13:17:09;21.30;99.90
44215;DHT22;29884;47.450;19.124;2022-07-05T13:19:36;21.30;99.90
44215;DHT22;29884;47.450;19.124;2022-07-05T13:22:04;21.30;99.90
44215;DHT22;29884;47.450;19.124;2022-07-05T13:24:30;21.20;99.90
44215;DHT22;29884;47.450;19.124;2022-07-05T13:26:56;21.30;99.90
44215;DHT22;29884;47.450;19.124;2022-07-05T13:29:22;21.20;99.90
44215;DHT22;29884;47.450;19.124;2022-07-05T13:31:48;21.20;99.90
44215;DHT22;29884;47.450;19.124;2022-07-05T13:34:14;21.20;99.90
44215;DHT22;29884;47.450;19.124;2022-07-05T13:36:39;21.30;99.90
44215;DHT22;29884;47.450;19.124;2022-07-05T13:39:05;21.30;99.90
44215;DHT22;29884;47.450;19.124;2022-07-05T13:41:31;21.20;99.90
44215;DHT22;29884;47.450;19.124;2022-07-05T13:43:58;21.20;99.90
44215;DHT22;29884;47.450;19.124;2022-07-05T13:46:24;21.20;99.90
44215;DHT22;29884;47.450;19.124;2022-07-05T13:48:49;21.20;99.90
44215;DHT22;29884;47.450;19.124;2022-07-05T13:51:15;21.20;99.90
44215;DHT22;29884;47.450;19.124;2022-07-05T13:53:41;21.30;99.90
44215;DHT22;29884;47.450;19.124;2022-07-05T13:56:07;21.40;99.90
44215;DHT22;29884;47.450;19.124;2022-07-05T13:58:33;21.50;99.90
44215;DHT22;29884;47.450;19.124;2022-07-05T14:01:00;21.50;99.90
44215;DHT22;29884;47.450;19.124;2022-07-05T14:03:26;21.60;99.90
44215;DHT22;29884;47.450;19.124;2022-07-05T14:05:52;21.70;99.90
44215;DHT22;29884;47.450;19.124;2022-07-05T14:08:18;21.70;99.90
44215;DHT22;29884;47.450;19.124;2022-07-05T14:10:51;21.70;99.90
44215;DHT22;29884;47.450;19.124;2022-07-05T14:13:21;21.80;99.90
44215;DHT22;29884;47.450;19.124;2022-07-05T14:15:48;21.90;99.90
44215;DHT22;29884;47.450;19.124;2022-07-05T14:18:15;22.20;99.90
44215;DHT22;29884;47.450;19.124;2022-07-05T14:20:41;22.40;99.90
44215;DHT22;29884;47.450;19.124;2022-07-05T14:23:08;22.70;99.90
44215;DHT22;29884;47.450;19.124;2022-07-05T14:25:34;22.90;99.90
44215;DHT22;29884;47.450;19.124;2022-07-05T14:28:00;23.30;99.90
44215;DHT22;29884;47.450;19.124;2022-07-05T14:30:26;23.60;99.90
44215;DHT22;29884;47.450;19.124;2022-07-05T14:32:54;24.00;99.90
44215;DHT22;29884;47.450;19.124;2022-07-05T14:35:20;24.00;99.90
44215;DHT22;29884;47.450;19.124;2022-07-05T14:37:46;24.00;99.90
44215;DHT22;29884;47.450;19.124;2022-07-05T14:40:11;24.20;99.90
44215;DHT22;29884;47.450;19.124;2022-07-05T14:42:37;24.20;99.90
44215;DHT22;29884;47.450;19.124;2022-07-05T14:45:25;24.10;99.90
44215;DHT22;29884;47.450;19.124;2022-07-05T14:48:09;24.00;99.90
44215;DHT22;29884;47.450;19.124;2022-07-05T14:50:35;24.00;99.90
44215;DHT22;29884;47.450;19.124;2022-07-05T14:53:00;24.10;99.90
44215;DHT22;29884;47.450;19.124;2022-07-05T14:55:34;24.00;99.90
44215;DHT22;29884;47.450;19.124;2022-07-05T14:57:59;23.90;99.90
44215;DHT22;29884;47.450;19.124;2022-07-05T15:00:25;23.80;99.90
44215;DHT22;29884;47.450;19.124;2022-07-05T15:02:51;23.60;99.90
44215;DHT22;29884;47.450;19.124;2022-07-05T15:05:16;23.60;99.90
44215;DHT22;29884;47.450;19.124;2022-07-05T15:07:42;23.60;99.90
44215;DHT22;29884;47.450;19.124;2022-07-05T15:10:09;23.70;99.90
44215;DHT22;29884;47.450;19.124;2022-07-05T15:12:35;23.90;99.90
44215;DHT22;29884;47.450;19.124;2022-07-05T15:15:01;24.30;99.90
44215;DHT22;29884;47.450;19.124;2022-07-05T15:17:26;24.60;99.90
44215;DHT22;29884;47.450;19.124;2022-07-05T15:19:52;24.70;99.90
44215;DHT22;29884;47.450;19.124;2022-07-05T15:22:18;24.90;99.90
44215;DHT22;29884;47.450;19.124;2022-07-05T15:24:43;25.00;99.90
44215;DHT22;29884;47.450;19.124;2022-07-05T15:27:09;24.70;99.90
44215;DHT22;29884;47.450;19.124;2022-07-05T15:29:36;24.60;99.90
44215;DHT22;29884;47.450;19.124;2022-07-05T15:32:02;24.50;99.90
44215;DHT22;29884;47.450;19.124;2022-07-05T15:34:28;24.40;99.90
44215;DHT22;29884;47.450;19.124;2022-07-05T15:36:53;24.50;99.90
44215;DHT22;29884;47.450;19.124;2022-07-05T15:39:19;24.30;99.90
44215;DHT22;29884;47.450;19.124;2022-07-05T15:41:45;24.10;99.90
44215;DHT22;29884;47.450;19.124;2022-07-05T15:44:11;24.10;99.90
44215;DHT22;29884;47.450;19.124;2022-07-05T15:46:36;24.00;99.90
44215;DHT22;29884;47.450;19.124;2022-07-05T15:49:20;24.20;99.90
44215;DHT22;29884;47.450;19.124;2022-07-05T15:51:46;24.40;99.90